createdAt,value
2023-01-13T00:01:10.001Z,7.60
2023-01-13T00:03:36.840Z,5.32
2023-01-13T00:06:04.748Z,5.60
2023-01-13T00:08:31.879Z,7.47
2023-01-13T00:10:58.518Z,4.60
2023-01-13T00:13:27.715Z,7.05
2023-01-13T00:16:02.441Z,5.53
2023-01-13T00:18:29.571Z,5.25
2023-01-13T00:21:04.363Z,5.22
2023-01-13T00:23:32.521Z,6.22
2023-01-13T00:26:01.103Z,5.95
2023-01-13T00:28:28.605Z,6.65
2023-01-13T00:30:58.914Z,7.63
2023-01-13T00:33:25.782Z,7.70
2023-01-13T00:36:00.254Z,6.60
2023-01-13T00:38:27.596Z,5.95
2023-01-13T00:41:01.135Z,5.95
2023-01-13T00:43:30.036Z,7.32
2023-01-13T00:45:56.629Z,6.82
2023-01-13T00:48:24.272Z,6.53
2023-01-13T00:51:04.195Z,4.95
2023-01-13T00:53:35.823Z,5.40
2023-01-13T00:56:05.150Z,7.75
2023-01-13T00:58:33.368Z,7.50
2023-01-13T01:01:01.952Z,6.35
2023-01-13T01:03:29.655Z,6.05
2023-01-13T01:05:57.592Z,6.10
2023-01-13T01:08:24.384Z,6.32
2023-01-13T01:11:01.043Z,7.78
2023-01-13T01:13:27.514Z,6.13
2023-01-13T01:15:54.018Z,7.40
2023-01-13T01:18:20.468Z,5.50
2023-01-13T01:20:46.977Z,6.13
2023-01-13T01:23:13.877Z,5.72
2023-01-13T01:25:41.913Z,7.05
2023-01-13T01:28:08.542Z,5.38
2023-01-13T01:30:35.100Z,8.63
2023-01-13T01:33:03.251Z,6.97
2023-01-13T01:35:29.744Z,7.07
2023-01-13T01:37:56.236Z,7.25
2023-01-13T01:40:22.749Z,6.32
2023-01-13T01:43:07.660Z,6.78
2023-01-13T01:45:34.281Z,8.05
2023-01-13T01:48:04.147Z,8.45
2023-01-13T01:50:31.962Z,6.03
2023-01-13T01:53:06.097Z,7.55
2023-01-13T01:55:37.086Z,8.60
2023-01-13T01:58:18.200Z,5.78
2023-01-13T02:00:44.817Z,8.85
2023-01-13T02:03:11.575Z,5.68
2023-01-13T02:05:38.936Z,7.35
2023-01-13T02:08:08.426Z,6.00
2023-01-13T02:10:36.346Z,6.63
2023-01-13T02:13:06.797Z,7.88
2023-01-13T02:15:33.190Z,7.97
2023-01-13T02:18:30.737Z,5.95
2023-01-13T02:21:18.419Z,6.85
2023-01-13T02:24:09.536Z,10.20
2023-01-13T02:26:51.081Z,8.48
2023-01-13T02:30:04.356Z,6.82
2023-01-13T02:32:36.930Z,7.35
2023-01-13T02:35:14.553Z,6.25
2023-01-13T02:37:44.581Z,6.10
2023-01-13T02:40:25.099Z,7.13
2023-01-13T02:43:48.095Z,7.68
2023-01-13T02:46:17.993Z,7.30
2023-01-13T02:48:47.856Z,5.43
2023-01-13T02:51:18.943Z,5.57
2023-01-13T02:53:59.546Z,5.82
2023-01-13T02:58:56.187Z,7.22
2023-01-13T03:01:23.487Z,6.50
2023-01-13T03:03:50.115Z,6.45
2023-01-13T03:06:16.569Z,5.85
2023-01-13T03:08:50.739Z,5.10
2023-01-13T03:11:19.874Z,6.82
2023-01-13T03:14:17.224Z,7.40
2023-01-13T03:17:04.936Z,7.50
2023-01-13T03:19:51.525Z,3.95
2023-01-13T03:22:38.259Z,6.18
2023-01-13T03:25:18.531Z,6.43
2023-01-13T03:28:02.350Z,5.43
2023-01-13T03:30:44.751Z,5.80
2023-01-13T03:33:24.529Z,6.60
2023-01-13T03:35:55.568Z,6.73
2023-01-13T03:38:29.715Z,4.18
2023-01-13T03:41:00.417Z,3.78
2023-01-13T03:44:22.831Z,6.63
2023-01-13T03:46:58.428Z,4.10
2023-01-13T03:49:30.197Z,4.28
2023-01-13T03:52:01.867Z,3.97
2023-01-13T03:54:32.331Z,3.00
2023-01-13T03:57:10.105Z,5.00
2023-01-13T03:59:42.109Z,3.92
2023-01-13T04:02:14.754Z,5.05
2023-01-13T04:04:48.578Z,3.22
2023-01-13T04:07:38.371Z,5.80
2023-01-13T04:10:09.175Z,6.27
2023-01-13T04:13:01.928Z,4.47
2023-01-13T04:15:40.867Z,3.67
2023-01-13T04:18:18.490Z,3.33
2023-01-13T04:20:47.980Z,4.55
2023-01-13T04:23:15.717Z,3.58
2023-01-13T04:25:43.534Z,5.35
2023-01-13T04:28:11.130Z,5.15
2023-01-13T04:30:38.418Z,3.47
2023-01-13T04:33:05.466Z,3.75
2023-01-13T04:35:32.732Z,3.92
2023-01-13T04:38:15.995Z,3.28
2023-01-13T04:40:43.137Z,3.60
2023-01-13T04:43:10.224Z,3.15
2023-01-13T04:45:36.743Z,4.18
2023-01-13T04:48:03.753Z,4.57
2023-01-13T04:50:30.330Z,3.75
2023-01-13T04:52:57.155Z,4.70
2023-01-13T04:55:24.886Z,4.88
2023-01-13T04:57:52.393Z,4.18
2023-01-13T05:00:21.293Z,4.25
2023-01-13T05:02:50.860Z,4.07
2023-01-13T05:05:17.917Z,3.28
2023-01-13T05:07:44.465Z,3.35
2023-01-13T05:10:11.743Z,4.28
2023-01-13T05:12:56.729Z,4.80
2023-01-13T05:15:42.200Z,5.50
2023-01-13T05:18:09.040Z,4.32
2023-01-13T05:20:35.546Z,4.82
2023-01-13T05:23:20.540Z,4.57
2023-01-13T05:25:49.825Z,3.47
2023-01-13T05:28:16.406Z,4.25
2023-01-13T05:30:46.546Z,5.40
2023-01-13T05:33:15.868Z,3.25
2023-01-13T05:35:44.108Z,3.75
2023-01-13T05:38:10.990Z,2.75
2023-01-13T05:41:00.138Z,3.47
2023-01-13T05:43:27.733Z,3.03
2023-01-13T05:46:01.354Z,3.50
2023-01-13T05:48:36.617Z,4.78
2023-01-13T05:51:05.499Z,4.35
2023-01-13T05:53:32.818Z,3.55
2023-01-13T05:56:00.273Z,4.65
2023-01-13T05:58:28.172Z,3.55
2023-01-13T06:01:00.796Z,4.10
2023-01-13T06:03:27.326Z,3.78
2023-01-13T06:05:58.737Z,4.65
2023-01-13T06:08:25.844Z,2.72
2023-01-13T06:10:52.613Z,3.47
2023-01-13T06:13:19.142Z,3.58
2023-01-13T06:15:45.774Z,5.30
2023-01-13T06:18:12.497Z,3.78
2023-01-13T06:20:39.042Z,5.25
2023-01-13T06:23:09.331Z,4.50
2023-01-13T06:26:07.035Z,3.40
2023-01-13T06:28:34.850Z,4.38
2023-01-13T06:31:05.432Z,3.33
2023-01-13T06:36:15.883Z,3.55
2023-01-13T06:38:47.850Z,3.25
2023-01-13T06:41:14.749Z,3.97
2023-01-13T06:43:41.375Z,3.72
2023-01-13T06:46:08.031Z,4.03
2023-01-13T06:48:35.484Z,3.28
2023-01-13T06:51:03.813Z,4.95
2023-01-13T06:53:30.647Z,3.25
2023-01-13T06:55:57.186Z,3.67
2023-01-13T06:58:23.739Z,3.70
2023-01-13T07:00:51.501Z,5.43
2023-01-13T07:03:19.155Z,4.00
2023-01-13T07:05:52.682Z,3.40
2023-01-13T07:08:19.532Z,4.07
2023-01-13T07:10:46.433Z,3.13
2023-01-13T07:13:31.711Z,4.60
2023-01-13T07:16:04.351Z,3.10
2023-01-13T07:18:32.636Z,4.43
2023-01-13T07:21:01.583Z,3.47
2023-01-13T07:23:30.052Z,3.35
2023-01-13T07:25:57.555Z,2.65
2023-01-13T07:28:25.499Z,3.83
2023-01-13T07:30:52.079Z,3.78
2023-01-13T07:33:19.243Z,3.60
2023-01-13T07:35:46.998Z,4.55
2023-01-13T07:38:14.081Z,3.90
2023-01-13T07:40:41.164Z,3.15
2023-01-13T07:43:30.561Z,4.22
2023-01-13T07:46:04.891Z,3.33
2023-01-13T07:48:33.897Z,2.53
2023-01-13T07:51:09.310Z,4.30
2023-01-13T07:53:36.588Z,5.88
2023-01-13T07:56:05.079Z,3.85
2023-01-13T07:58:33.461Z,3.40
2023-01-13T08:01:00.400Z,3.83
2023-01-13T08:03:27.577Z,4.88
2023-01-13T08:05:55.317Z,5.03
2023-01-13T08:08:22.139Z,3.78
2023-01-13T08:10:48.635Z,4.50
2023-01-13T08:13:22.800Z,5.47
2023-01-13T08:15:51.566Z,3.92
2023-01-13T08:18:21.262Z,5.15
2023-01-13T08:20:54.719Z,5.00
2023-01-13T08:23:22.607Z,4.00
2023-01-13T08:25:49.837Z,2.97
2023-01-13T08:28:16.970Z,4.22
2023-01-13T08:30:44.070Z,4.80
2023-01-13T08:33:12.870Z,4.78
2023-01-13T08:35:42.407Z,4.47
2023-01-13T08:38:09.938Z,3.65
2023-01-13T08:40:36.752Z,4.53
2023-01-13T08:43:04.039Z,3.83
2023-01-13T08:45:30.983Z,4.82
2023-01-13T08:47:59.101Z,4.28
2023-01-13T08:50:27.973Z,5.70
2023-01-13T08:52:54.683Z,5.85
2023-01-13T08:55:21.309Z,3.63
2023-01-13T08:57:47.930Z,4.47
2023-01-13T09:00:17.140Z,3.58
2023-01-13T09:02:43.897Z,4.82
2023-01-13T09:05:11.326Z,3.38
2023-01-13T09:07:38.966Z,4.97
2023-01-13T09:10:08.696Z,3.95
2023-01-13T09:12:54.261Z,2.80
2023-01-13T09:15:21.610Z,5.43
2023-01-13T09:17:48.188Z,3.15
2023-01-13T09:20:14.935Z,3.40
2023-01-13T09:22:41.559Z,4.63
2023-01-13T09:25:08.744Z,5.30
2023-01-13T09:27:35.717Z,3.65
2023-01-13T09:30:02.346Z,4.13
2023-01-13T09:32:28.965Z,4.30
2023-01-13T09:35:01.462Z,4.00
2023-01-13T09:37:36.521Z,4.13
2023-01-13T09:40:15.589Z,3.83
2023-01-13T09:43:15.859Z,4.65
2023-01-13T09:45:57.462Z,4.13
2023-01-13T09:48:32.247Z,2.45
2023-01-13T09:51:07.292Z,6.00
2023-01-13T09:53:40.469Z,4.20
2023-01-13T09:56:10.526Z,4.60
2023-01-13T09:58:37.516Z,6.55
2023-01-13T10:01:07.313Z,9.15
2023-01-13T10:03:35.614Z,5.82
2023-01-13T10:06:13.812Z,9.95
2023-01-13T10:08:42.810Z,10.90
2023-01-13T10:11:51.933Z,9.55
2023-01-13T10:14:26.422Z,12.63
2023-01-13T10:17:11.982Z,14.13
2023-01-13T10:19:49.013Z,12.60
2023-01-13T10:22:47.944Z,10.05
2023-01-13T10:25:27.667Z,11.18
2023-01-13T10:27:56.323Z,6.57
2023-01-13T10:30:32.210Z,9.88
2023-01-13T10:33:01.319Z,6.70
2023-01-13T10:36:03.806Z,4.88
2023-01-13T10:38:37.987Z,6.85
2023-01-13T10:41:26.496Z,6.60
2023-01-13T10:43:52.957Z,7.50
2023-01-13T10:46:20.746Z,5.50
2023-01-13T10:48:53.647Z,3.97
2023-01-13T10:51:25.156Z,7.68
2023-01-13T10:53:57.958Z,3.75
2023-01-13T10:56:34.968Z,3.55
2023-01-13T10:59:19.668Z,4.53
2023-01-13T11:01:55.134Z,4.75
2023-01-13T11:04:37.437Z,4.70
2023-01-13T11:07:16.555Z,5.75
2023-01-13T11:09:43.294Z,4.68
2023-01-13T11:12:31.345Z,5.18
2023-01-13T11:15:02.147Z,5.18
2023-01-13T11:17:34.732Z,4.35
2023-01-13T11:20:31.087Z,3.83
2023-01-13T11:23:02.420Z,3.65
2023-01-13T11:25:42.954Z,5.07
2023-01-13T11:30:48.473Z,4.45
2023-01-13T11:33:15.924Z,3.30
2023-01-13T11:35:51.393Z,3.90
2023-01-13T11:38:47.953Z,3.28
2023-01-13T11:41:29.360Z,3.72
2023-01-13T11:44:13.149Z,3.65
2023-01-13T11:46:40.883Z,5.53
2023-01-13T11:49:22.630Z,3.70
2023-01-13T11:52:13.985Z,3.65
2023-01-13T11:55:08.615Z,5.43
2023-01-13T11:58:19.422Z,4.53
2023-01-13T12:01:23.452Z,3.47
2023-01-13T12:04:26.553Z,5.78
2023-01-13T12:07:12.949Z,4.13
2023-01-13T12:10:13.116Z,4.07
2023-01-13T12:13:01.754Z,3.10
2023-01-13T12:15:39.761Z,3.42
2023-01-13T12:18:43.987Z,6.60
2023-01-13T12:21:25.006Z,8.98
2023-01-13T12:24:09.548Z,5.25
2023-01-13T12:26:42.054Z,3.05
2023-01-13T12:29:18.207Z,4.70
2023-01-13T12:31:48.679Z,4.97
2023-01-13T12:34:36.790Z,5.45
2023-01-13T12:37:32.499Z,3.97
2023-01-13T12:40:17.779Z,4.00
2023-01-13T12:43:22.431Z,3.88
2023-01-13T12:45:49.092Z,4.88
2023-01-13T12:48:54.914Z,4.50
2023-01-13T12:51:34.214Z,6.43
2023-01-13T12:54:02.912Z,4.60
2023-01-13T12:56:36.213Z,4.18
2023-01-13T12:59:24.221Z,4.57
2023-01-13T13:02:11.839Z,3.58
2023-01-13T13:04:48.066Z,3.85
2023-01-13T13:07:23.085Z,2.97
2023-01-13T13:09:56.185Z,4.63
2023-01-13T13:12:50.331Z,3.85
2023-01-13T13:15:24.344Z,3.30
2023-01-13T13:18:00.061Z,4.25
2023-01-13T13:20:56.612Z,6.03
2023-01-13T13:23:43.527Z,3.60
2023-01-13T13:26:21.513Z,3.78
2023-01-13T13:29:09.297Z,2.15
2023-01-13T13:31:52.686Z,4.13
2023-01-13T13:34:30.363Z,2.97
2023-01-13T13:37:31.960Z,3.63
2023-01-13T13:40:17.174Z,1.88
2023-01-13T13:43:14.929Z,3.40
2023-01-13T13:46:10.729Z,3.47
2023-01-13T13:48:37.622Z,2.30
2023-01-13T13:51:25.318Z,3.53
2023-01-13T13:53:52.691Z,3.83
2023-01-13T13:56:23.448Z,2.95
2023-01-13T13:58:50.504Z,3.70
2023-01-13T14:01:32.697Z,3.42
2023-01-13T14:04:20.427Z,3.47
2023-01-13T14:06:55.922Z,2.35
2023-01-13T14:09:24.538Z,3.38
2023-01-13T14:12:03.418Z,3.92
2023-01-13T14:14:30.394Z,3.60
2023-01-13T14:16:57.099Z,3.30
2023-01-13T14:19:35.477Z,2.97
2023-01-13T14:22:03.888Z,3.00
2023-01-13T14:24:31.690Z,3.22
2023-01-13T14:27:18.898Z,3.25
2023-01-13T14:29:48.978Z,5.18
2023-01-13T14:32:20.082Z,4.80
2023-01-13T14:34:47.271Z,4.10
2023-01-13T14:37:34.006Z,3.63
2023-01-13T14:40:00.804Z,4.30
2023-01-13T14:42:29.634Z,2.67
2023-01-13T14:44:56.478Z,3.60
2023-01-13T14:47:34.020Z,4.40
2023-01-13T14:50:36.660Z,3.33
2023-01-13T14:53:05.007Z,3.90
2023-01-13T14:55:37.495Z,2.03
2023-01-13T14:58:22.551Z,2.38
2023-01-13T15:00:50.665Z,4.13
2023-01-13T15:03:19.597Z,2.78
2023-01-13T15:05:49.391Z,4.55
2023-01-13T15:08:17.310Z,3.55
2023-01-13T15:10:54.593Z,3.25
2023-01-13T15:13:36.049Z,4.10
2023-01-13T15:16:04.707Z,2.72
2023-01-13T15:18:31.135Z,3.08
2023-01-13T15:20:57.784Z,2.85
2023-01-13T15:23:24.251Z,5.07
2023-01-13T15:25:50.776Z,5.03
2023-01-13T15:28:23.303Z,2.22
2023-01-13T15:30:51.629Z,4.55
2023-01-13T15:33:19.337Z,5.05
2023-01-13T15:35:55.211Z,3.05
2023-01-13T15:38:23.413Z,2.58
2023-01-13T15:40:51.527Z,4.15
2023-01-13T15:43:39.204Z,3.92
2023-01-13T15:46:32.139Z,4.38
2023-01-13T15:49:20.899Z,3.13
2023-01-13T15:51:49.357Z,5.03
2023-01-13T15:54:16.317Z,5.32
2023-01-13T15:56:42.815Z,4.40
2023-01-13T15:59:17.439Z,4.15
2023-01-13T16:01:47.210Z,5.22
2023-01-13T16:04:13.794Z,4.18
2023-01-13T16:06:40.541Z,3.97
2023-01-13T16:09:07.599Z,4.82
2023-01-13T16:11:34.118Z,3.92
2023-01-13T16:14:00.742Z,4.45
2023-01-13T16:16:28.793Z,5.10
2023-01-13T16:18:56.404Z,5.30
2023-01-13T16:21:23.795Z,5.18
2023-01-13T16:23:51.759Z,5.20
2023-01-13T16:26:30.137Z,4.18
2023-01-13T16:28:58.322Z,4.45
2023-01-13T16:31:30.649Z,4.60
2023-01-13T16:33:58.515Z,5.38
2023-01-13T16:36:25.452Z,4.13
2023-01-13T16:38:52.960Z,3.65
2023-01-13T16:41:21.621Z,4.20
2023-01-13T16:43:48.664Z,3.85
2023-01-13T16:46:29.675Z,5.03
2023-01-13T16:49:01.775Z,4.88
2023-01-13T16:51:28.404Z,4.53
2023-01-13T16:53:55.031Z,4.38
2023-01-13T16:56:33.123Z,5.00
2023-01-13T16:59:11.471Z,4.30
2023-01-13T17:01:39.753Z,3.55
2023-01-13T17:04:07.256Z,4.68
2023-01-13T17:06:40.279Z,3.10
2023-01-13T17:09:14.297Z,3.05
2023-01-13T17:11:40.886Z,3.92
2023-01-13T17:14:19.363Z,3.30
2023-01-13T17:16:46.617Z,5.88
2023-01-13T17:19:13.494Z,3.83
2023-01-13T17:21:40.088Z,3.72
2023-01-13T17:24:08.180Z,2.92
2023-01-13T17:26:52.779Z,2.95
2023-01-13T17:29:22.578Z,3.50
2023-01-13T17:31:51.433Z,5.65
2023-01-13T17:34:19.177Z,3.58
2023-01-13T17:36:45.779Z,2.85
2023-01-13T17:39:26.667Z,4.40
2023-01-13T17:41:55.918Z,3.22
2023-01-13T17:44:25.509Z,3.30
2023-01-13T17:46:52.039Z,4.17
2023-01-13T17:49:21.261Z,3.08
2023-01-13T17:51:48.478Z,3.60
2023-01-13T17:54:15.058Z,4.22
2023-01-13T17:56:41.906Z,2.33
2023-01-13T17:59:11.238Z,3.45
2023-01-13T18:01:38.828Z,2.90
2023-01-13T18:04:06.916Z,4.05
2023-01-13T18:06:33.779Z,4.70
2023-01-13T18:09:00.397Z,3.65
2023-01-13T18:11:27.391Z,3.13
2023-01-13T18:13:57.101Z,4.25
2023-01-13T18:16:25.105Z,3.90
2023-01-13T18:19:19.992Z,3.17
2023-01-13T18:22:06.243Z,4.78
2023-01-13T18:24:51.577Z,2.83
2023-01-13T18:27:26.564Z,3.15
2023-01-13T18:29:58.124Z,3.35
2023-01-13T18:32:29.802Z,3.10
2023-01-13T18:35:05.676Z,3.30
2023-01-13T18:37:35.702Z,3.25
2023-01-13T18:40:02.864Z,3.67
2023-01-13T18:42:47.766Z,3.78
2023-01-13T18:45:14.591Z,3.05
2023-01-13T18:47:42.293Z,3.72
2023-01-13T18:50:12.207Z,3.42
2023-01-13T18:52:38.827Z,2.75
2023-01-13T18:55:05.899Z,3.63
2023-01-13T18:57:33.680Z,3.20
2023-01-13T19:00:01.541Z,2.65
2023-01-13T19:02:30.029Z,3.53
2023-01-13T19:04:57.442Z,2.88
2023-01-13T19:07:28.376Z,3.05
2023-01-13T19:09:55.926Z,4.28
2023-01-13T19:12:30.918Z,3.88
2023-01-13T19:15:00.001Z,2.65
2023-01-13T19:17:29.918Z,3.20
2023-01-13T19:19:57.630Z,3.00
2023-01-13T19:22:30.471Z,4.65
2023-01-13T19:24:58.067Z,4.95
2023-01-13T19:27:27.645Z,3.13
2023-01-13T19:30:00.443Z,4.32
2023-01-13T19:32:28.177Z,2.88
2023-01-13T19:34:59.200Z,2.45
2023-01-13T19:37:30.213Z,3.03
2023-01-13T19:39:59.908Z,3.38
2023-01-13T19:42:46.237Z,2.40
2023-01-13T19:45:26.697Z,3.30
2023-01-13T19:47:53.995Z,5.57
2023-01-13T19:50:20.550Z,3.95
2023-01-13T19:52:47.052Z,3.90
2023-01-13T19:55:13.727Z,2.70
2023-01-13T19:57:43.348Z,3.17
2023-01-13T20:00:11.837Z,2.40
2023-01-13T20:02:38.947Z,3.30
2023-01-13T20:05:07.784Z,2.92
2023-01-13T20:07:35.351Z,3.45
2023-01-13T20:10:02.923Z,3.53
2023-01-13T20:12:29.872Z,3.50
2023-01-13T20:14:56.684Z,2.50
2023-01-13T20:17:25.633Z,3.47
2023-01-13T20:19:52.610Z,3.17
2023-01-13T20:22:19.702Z,3.25
2023-01-13T20:24:46.390Z,3.28
2023-01-13T20:27:13.094Z,2.55
2023-01-13T20:29:39.684Z,3.75
2023-01-13T20:32:06.222Z,1.80
2023-01-13T20:34:33.257Z,3.28
2023-01-13T20:37:00.266Z,2.50
2023-01-13T20:39:26.932Z,2.47
2023-01-13T20:42:12.926Z,3.53
2023-01-13T20:44:39.556Z,3.22
2023-01-13T20:47:06.724Z,3.72
2023-01-13T20:49:36.167Z,3.58
2023-01-13T20:52:09.214Z,1.88
2023-01-13T20:54:40.661Z,3.22
2023-01-13T20:57:10.077Z,2.55
2023-01-13T20:59:40.179Z,1.95
2023-01-13T21:02:12.427Z,4.25
2023-01-13T21:04:39.333Z,2.83
2023-01-13T21:07:06.536Z,2.50
2023-01-13T21:09:33.109Z,4.22
2023-01-13T21:12:21.046Z,3.60
2023-01-13T21:15:06.057Z,3.30
2023-01-13T21:17:51.375Z,1.85
2023-01-13T21:20:19.645Z,4.25
2023-01-13T21:22:47.820Z,1.67
2023-01-13T21:25:15.784Z,3.17
2023-01-13T21:27:43.997Z,4.18
2023-01-13T21:30:15.093Z,2.65
2023-01-13T21:32:43.295Z,2.35
2023-01-13T21:35:10.268Z,3.35
2023-01-13T21:37:38.023Z,2.65
2023-01-13T21:40:06.694Z,5.10
2023-01-13T21:42:52.222Z,2.70
2023-01-13T21:45:37.904Z,1.80
2023-01-13T21:48:05.140Z,2.70
2023-01-13T21:50:31.893Z,3.03
2023-01-13T21:52:58.716Z,3.63
2023-01-13T21:55:29.372Z,2.38
2023-01-13T21:58:14.027Z,2.97
2023-01-13T22:00:42.713Z,2.63
2023-01-13T22:03:10.435Z,3.55
2023-01-13T22:05:38.022Z,2.63
2023-01-13T22:08:05.546Z,3.72
2023-01-13T22:10:32.457Z,2.35
2023-01-13T22:13:21.083Z,2.55
2023-01-13T22:15:48.299Z,2.35
2023-01-13T22:18:14.830Z,2.28
2023-01-13T22:20:42.163Z,2.95
2023-01-13T22:23:09.068Z,3.63
2023-01-13T22:25:35.591Z,2.55
2023-01-13T22:28:06.072Z,2.72
2023-01-13T22:33:00.607Z,3.42
2023-01-13T22:35:27.308Z,3.15
2023-01-13T22:37:53.871Z,4.03
2023-01-13T22:40:20.378Z,1.80
2023-01-13T22:42:46.899Z,1.80
2023-01-13T22:45:14.546Z,2.88
2023-01-13T22:47:41.731Z,4.15
2023-01-13T22:50:09.477Z,2.53
2023-01-13T22:52:36.278Z,3.40
2023-01-13T22:55:03.077Z,2.25
2023-01-13T22:57:36.141Z,2.95
2023-01-13T23:00:06.667Z,3.28
2023-01-13T23:02:34.617Z,2.78
2023-01-13T23:05:01.643Z,2.78
2023-01-13T23:07:28.558Z,2.25
2023-01-13T23:09:55.194Z,1.65
2023-01-13T23:12:21.761Z,3.13
2023-01-13T23:14:48.408Z,2.42
2023-01-13T23:17:14.987Z,4.00
2023-01-13T23:19:41.480Z,3.28
2023-01-13T23:22:08.377Z,2.80
2023-01-13T23:24:34.884Z,2.88
2023-01-13T23:27:01.445Z,3.53
2023-01-13T23:29:27.991Z,3.28
2023-01-13T23:31:54.511Z,4.07
2023-01-13T23:34:21.147Z,4.05
2023-01-13T23:36:47.674Z,3.50
2023-01-13T23:39:14.254Z,4.25
2023-01-13T23:41:41.162Z,2.67
2023-01-13T23:44:07.864Z,3.05
2023-01-13T23:46:35.275Z,2.63
2023-01-13T23:49:03.592Z,3.38
2023-01-13T23:51:30.565Z,3.42
2023-01-13T23:53:58.788Z,3.42
2023-01-13T23:56:28.191Z,2.05
2023-01-13T23:58:55.459Z,2.40
